Charlotte, NC

8:39 AM EST on December 06, 2016 (GMT -0500)
Charlotte | | Change Station

Elev 0 ft 35.23 °N, 80.85 °W | Updated 3 minutes ago

Light Rain
Light Rain Mist
46.6 °F
Feels Like 47 °F
N
1.2
Wind Variable Wind from East
Gusts 3.1 mph

Today
High -- | Low -- °F
--% Chance of Precip.
Yesterday
High -- | Low -- °F
Precip. -- in
Pressure 29.88 in
Visibility 2.0 miles
Clouds Overcast 600 ft
Windchill 47 °F
Dew Point 43 °F
Humidity 87%
Rainfall Not available.
Snow Depth Not available.
7:18 AM 5:10 PM
Waxing Crescent, 42% visible
SPECI KCLT 061326Z 02008KT 2SM -RA BR OVC006 07/06 A2988 RMK AO2 SFC VIS 3 P0008 T00720056
Pressure 29.88 in
Visibility 2.0 miles
Clouds Overcast 600 ft
Windchill 47 °F
Dew Point 43 °F
Humidity 87%
Rainfall Not available.
Snow Depth Not available.
7:18 AM 5:10 PM
Waxing Crescent, 42% visible
SPECI KCLT 061326Z 02008KT 2SM -RA BR OVC006 07/06 A2988 RMK AO2 SFC VIS 3 P0008 T00720056

10-Day Weather Forecast

Almanac

Astronomy

Dec. 06, 2016 Rise Set
Actual Time
Civil Twilight
Nautical Twilight
Astronomical Twilight
Moon
Length of Visible Light
Length of Day
Tomorrow will be .
, % of the Moon is Illuminated

Today's Extremes

State Highs State Lows

Community

WunderPhotos

Upload Photos

1,955,945 photos uploaded!

WunderBlog® & News

Nearby

Air Quality

  Air Quality AQ Index Pollutant
Not available.

Snow Depth

Station Depth Elevation

Earthquake Activity

City Distance Mag. Time & Date
Minimum magnitude displayed is 2.5.

Coastal Water Temperatures

Place Temperature

Stations

Nearby Weather Stations

Station Location Temp. Windchill Dew Point Humidity Wind Precip. Elev Updated Type
                   

Watches & Warnings

There are currently no watches in effect.